createdAt,value
2023-04-15T00:01:51.160Z,8.10
2023-04-15T00:04:17.687Z,5.85
2023-04-15T00:06:51.367Z,6.88
2023-04-15T00:09:18.914Z,6.63
2023-04-15T00:11:46.237Z,6.28
2023-04-15T00:14:13.619Z,7.63
2023-04-15T00:16:40.102Z,9.65
2023-04-15T00:19:06.511Z,7.88
2023-04-15T00:21:33.222Z,9.48
2023-04-15T00:23:59.584Z,7.75
2023-04-15T00:26:25.958Z,7.20
2023-04-15T00:28:52.379Z,8.30
2023-04-15T00:31:18.881Z,7.10
2023-04-15T00:33:45.917Z,8.77
2023-04-15T00:36:13.019Z,7.80
2023-04-15T00:38:39.413Z,7.35
2023-04-15T00:41:05.897Z,9.70
2023-04-15T00:43:42.388Z,7.53
2023-04-15T00:46:10.515Z,7.90
2023-04-15T00:48:43.766Z,7.32
2023-04-15T00:51:10.625Z,7.07
2023-04-15T00:53:37.004Z,7.07
2023-04-15T00:56:03.578Z,7.82
2023-04-15T00:58:29.944Z,7.55
2023-04-15T01:00:57.199Z,7.05
2023-04-15T01:03:23.682Z,7.40
2023-04-15T01:05:50.362Z,8.35
2023-04-15T01:08:16.896Z,7.30
2023-04-15T01:10:43.928Z,6.60
2023-04-15T01:13:10.284Z,5.82
2023-04-15T01:15:36.665Z,6.50
2023-04-15T01:18:03.137Z,8.65
2023-04-15T01:20:33.703Z,7.38
2023-04-15T01:23:00.421Z,7.88
2023-04-15T01:25:34.693Z,7.75
2023-04-15T01:28:01.305Z,7.43
2023-04-15T01:30:27.884Z,7.90
2023-04-15T01:32:54.400Z,8.50
2023-04-15T01:35:21.483Z,7.45
2023-04-15T01:37:48.946Z,6.43
2023-04-15T01:40:17.295Z,6.97
2023-04-15T01:42:44.570Z,8.40
2023-04-15T01:45:11.448Z,8.10
2023-04-15T01:47:38.124Z,8.13
2023-04-15T01:50:04.990Z,6.97
2023-04-15T01:52:32.056Z,8.45
2023-04-15T01:54:58.581Z,7.45
2023-04-15T01:57:25.138Z,8.38
2023-04-15T01:59:51.545Z,8.20
2023-04-15T02:02:17.937Z,9.38
2023-04-15T02:04:44.741Z,7.97
2023-04-15T02:07:11.310Z,8.05
2023-04-15T02:09:38.581Z,9.13
2023-04-15T02:12:07.293Z,11.38
2023-04-15T02:14:38.492Z,9.18
2023-04-15T02:17:08.222Z,10.00
2023-04-15T02:19:35.597Z,9.57
2023-04-15T02:22:03.280Z,10.73
2023-04-15T02:24:30.628Z,10.55
2023-04-15T02:26:57.384Z,10.20
2023-04-15T02:29:23.748Z,13.50
2023-04-15T02:31:50.186Z,12.55
2023-04-15T02:34:16.619Z,11.10
2023-04-15T02:36:45.541Z,11.95
2023-04-15T02:39:14.726Z,14.10
2023-04-15T02:41:43.406Z,12.52
2023-04-15T02:44:18.944Z,13.32
2023-04-15T02:46:53.543Z,12.77
2023-04-15T02:49:25.546Z,11.68
2023-04-15T02:51:59.934Z,13.10
2023-04-15T02:54:28.644Z,15.85
2023-04-15T02:56:58.009Z,13.15
2023-04-15T02:59:30.961Z,13.63
2023-04-15T03:02:00.864Z,12.35
2023-04-15T03:04:30.085Z,13.55
2023-04-15T03:06:56.831Z,15.05
2023-04-15T03:09:23.921Z,16.75
2023-04-15T03:11:53.477Z,15.25
2023-04-15T03:14:20.751Z,17.25
2023-04-15T03:16:47.937Z,16.08
2023-04-15T03:19:16.615Z,14.40
2023-04-15T03:21:43.864Z,17.95
2023-04-15T03:24:10.607Z,16.83
2023-04-15T03:26:37.035Z,14.18
2023-04-15T03:29:10.140Z,15.77
2023-04-15T03:31:36.704Z,18.48
2023-04-15T03:34:03.102Z,18.13
2023-04-15T03:36:32.834Z,19.50
2023-04-15T03:38:59.862Z,21.70
2023-04-15T03:41:28.402Z,20.30
2023-04-15T03:43:54.856Z,20.10
2023-04-15T03:46:21.375Z,23.20
2023-04-15T03:48:48.267Z,22.75
2023-04-15T03:51:14.679Z,20.23
2023-04-15T03:53:41.081Z,21.90
2023-04-15T03:56:07.507Z,25.83
2023-04-15T03:58:33.871Z,26.55
2023-04-15T04:01:00.252Z,26.45
2023-04-15T04:03:27.429Z,26.80
2023-04-15T04:05:54.036Z,25.65
2023-04-15T04:08:21.653Z,23.55
2023-04-15T04:10:48.002Z,22.95
2023-04-15T04:13:14.347Z,27.90
2023-04-15T04:15:40.796Z,24.73
2023-04-15T04:18:07.276Z,25.05
2023-04-15T04:20:34.023Z,26.55
2023-04-15T04:23:00.372Z,27.88
2023-04-15T04:25:27.413Z,22.70
2023-04-15T04:27:53.792Z,24.33
2023-04-15T04:30:20.147Z,27.88
2023-04-15T04:32:46.577Z,25.83
2023-04-15T04:35:12.945Z,27.30
2023-04-15T04:37:39.332Z,30.20
2023-04-15T04:40:06.444Z,33.53
2023-04-15T04:42:32.894Z,31.77
2023-04-15T04:44:59.257Z,36.97
2023-04-15T04:47:25.803Z,34.22
2023-04-15T04:49:52.182Z,36.05
2023-04-15T04:52:18.546Z,35.03
2023-04-15T04:54:45.072Z,37.55
2023-04-15T04:57:13.450Z,36.67
2023-04-15T04:59:40.090Z,37.33
2023-04-15T05:02:07.231Z,41.45
2023-04-15T05:04:34.378Z,38.17
2023-04-15T05:07:00.757Z,42.30
2023-04-15T05:09:28.064Z,37.83
2023-04-15T05:11:54.422Z,41.50
2023-04-15T05:14:22.844Z,42.97
2023-04-15T05:16:50.252Z,41.08
2023-04-15T05:19:16.599Z,42.67
2023-04-15T05:21:43.010Z,45.50
2023-04-15T05:24:09.389Z,45.30
2023-04-15T05:26:35.895Z,47.05
2023-04-15T05:29:02.715Z,49.65
2023-04-15T05:31:29.316Z,50.08
2023-04-15T05:33:55.731Z,43.85
2023-04-15T05:36:22.104Z,46.25
2023-04-15T05:38:48.457Z,45.50
2023-04-15T05:41:17.175Z,66.35
2023-04-15T05:43:45.658Z,57.55
2023-04-15T05:46:12.028Z,48.10
2023-04-15T05:48:38.462Z,44.67
2023-04-15T05:51:05.188Z,51.10
2023-04-15T05:53:31.889Z,46.28
2023-04-15T05:55:58.300Z,46.97
2023-04-15T05:58:24.678Z,45.55
2023-04-15T06:00:51.200Z,45.42
2023-04-15T06:03:17.959Z,46.03
2023-04-15T06:05:45.424Z,44.20
2023-04-15T06:08:12.416Z,48.42
2023-04-15T06:10:38.892Z,46.08
2023-04-15T06:13:05.768Z,45.88
2023-04-15T06:15:32.388Z,51.15
2023-04-15T06:17:59.238Z,84.70
2023-04-15T06:20:26.012Z,56.78
2023-04-15T06:22:52.646Z,75.45
2023-04-15T06:25:20.263Z,53.70
2023-04-15T06:27:46.764Z,52.58
2023-04-15T06:30:13.451Z,52.63
2023-04-15T06:32:42.970Z,53.15
2023-04-15T06:35:09.928Z,44.00
2023-04-15T06:37:36.361Z,52.30
2023-04-15T06:40:06.226Z,49.10
2023-04-15T06:42:32.994Z,235.55
2023-04-15T06:44:59.352Z,113.72
2023-04-15T06:47:26.146Z,126.32
2023-04-15T06:49:52.525Z,67.30
2023-04-15T06:52:19.338Z,86.30
2023-04-15T06:54:45.791Z,58.55
2023-04-15T06:57:12.227Z,56.20
2023-04-15T06:59:38.657Z,58.35
2023-04-15T07:02:05.105Z,55.40
2023-04-15T07:04:31.677Z,65.60
2023-04-15T07:06:58.192Z,58.03
2023-04-15T07:09:24.734Z,57.85
2023-04-15T07:11:51.524Z,56.35
2023-04-15T07:14:18.135Z,66.90
2023-04-15T07:16:44.915Z,58.97
2023-04-15T07:19:11.692Z,65.90
2023-04-15T07:21:39.459Z,58.92
2023-04-15T07:24:08.549Z,56.63
2023-04-15T07:26:34.886Z,55.38
2023-04-15T07:29:01.749Z,50.13
2023-04-15T07:31:28.510Z,55.97
2023-04-15T07:33:55.093Z,53.58
2023-04-15T07:36:21.478Z,51.38
2023-04-15T07:38:54.164Z,56.42
2023-04-15T07:41:21.658Z,53.30
2023-04-15T07:43:48.723Z,51.63
2023-04-15T07:46:15.380Z,50.58
2023-04-15T07:48:42.643Z,48.95
2023-04-15T07:51:10.713Z,50.80
2023-04-15T07:53:37.282Z,50.55
2023-04-15T07:56:03.814Z,57.30
2023-04-15T07:58:37.161Z,54.90
2023-04-15T08:01:06.791Z,52.88
2023-04-15T08:03:33.729Z,58.17
2023-04-15T08:06:00.595Z,55.38
2023-04-15T08:08:27.487Z,54.22
2023-04-15T08:10:53.893Z,67.60
2023-04-15T08:13:20.784Z,61.58
2023-04-15T08:16:13.689Z,51.67
2023-04-15T08:18:40.069Z,55.05
2023-04-15T08:21:06.627Z,58.08
2023-04-15T08:23:33.505Z,67.80
2023-04-15T08:25:59.932Z,57.72
2023-04-15T08:28:26.307Z,58.75
2023-04-15T08:30:53.159Z,50.85
2023-04-15T08:33:19.531Z,56.53
2023-04-15T08:35:46.516Z,56.28
2023-04-15T08:38:12.908Z,58.97
2023-04-15T08:40:44.220Z,60.72
2023-04-15T08:43:15.722Z,56.65
2023-04-15T08:45:44.023Z,56.58
2023-04-15T08:48:16.497Z,54.20
2023-04-15T08:50:43.312Z,60.67
2023-04-15T08:53:11.597Z,62.10
2023-04-15T08:55:45.816Z,58.78
2023-04-15T08:58:16.422Z,68.00
2023-04-15T09:00:42.968Z,65.03
2023-04-15T09:03:09.754Z,78.63
2023-04-15T09:05:37.322Z,69.10
2023-04-15T09:08:05.302Z,74.22
2023-04-15T09:10:33.469Z,75.63
2023-04-15T09:13:03.207Z,67.70
2023-04-15T09:15:30.316Z,62.28
2023-04-15T09:17:57.053Z,64.80
2023-04-15T09:20:23.675Z,59.60
2023-04-15T09:22:51.083Z,54.28
2023-04-15T09:25:24.258Z,57.85
2023-04-15T09:27:52.583Z,69.97
2023-04-15T09:30:19.033Z,60.00
2023-04-15T09:32:54.025Z,61.58
2023-04-15T09:35:22.226Z,56.65
2023-04-15T09:37:49.829Z,66.10
2023-04-15T09:40:32.534Z,59.35
2023-04-15T09:42:59.432Z,58.90
2023-04-15T09:45:28.919Z,61.20
2023-04-15T09:48:14.419Z,67.72
2023-04-15T09:50:42.665Z,56.78
2023-04-15T09:53:20.076Z,59.38
2023-04-15T09:55:50.238Z,46.38
2023-04-15T09:58:33.234Z,51.13
2023-04-15T10:01:01.796Z,45.90
2023-04-15T10:03:35.330Z,52.80
2023-04-15T10:06:03.404Z,52.17
2023-04-15T10:08:32.773Z,52.17
2023-04-15T10:11:01.840Z,44.63
2023-04-15T10:13:33.245Z,39.90
2023-04-15T10:16:07.479Z,36.72
2023-04-15T10:18:40.594Z,40.58
2023-04-15T10:21:09.091Z,42.35
2023-04-15T10:23:35.946Z,41.13
2023-04-15T10:26:04.355Z,39.60
2023-04-15T10:28:30.829Z,40.50
2023-04-15T10:30:59.886Z,31.75
2023-04-15T10:33:28.568Z,28.83
2023-04-15T10:35:55.829Z,36.92
2023-04-15T10:38:40.607Z,31.38
2023-04-15T10:41:24.182Z,26.10
2023-04-15T10:43:53.151Z,24.98
2023-04-15T10:46:41.628Z,22.73
2023-04-15T10:49:12.384Z,24.38
2023-04-15T10:51:44.284Z,21.55
2023-04-15T10:54:24.561Z,20.95
2023-04-15T10:56:52.601Z,24.35
2023-04-15T10:59:20.411Z,22.35
2023-04-15T11:01:53.970Z,21.95
2023-04-15T11:04:56.295Z,21.15
2023-04-15T11:07:48.546Z,19.83
2023-04-15T11:10:17.687Z,16.42
2023-04-15T11:12:45.526Z,18.17
2023-04-15T11:15:30.957Z,21.58
2023-04-15T11:17:58.662Z,22.55
2023-04-15T11:20:25.712Z,48.42
2023-04-15T11:22:53.640Z,150.23
2023-04-15T11:25:40.252Z,58.90
2023-04-15T11:28:07.588Z,53.58
2023-04-15T11:30:36.845Z,39.90
2023-04-15T11:33:06.083Z,28.27
2023-04-15T11:35:32.995Z,34.35
2023-04-15T11:38:03.836Z,31.67
2023-04-15T11:40:31.440Z,27.05
2023-04-15T11:43:21.069Z,22.42
2023-04-15T11:45:59.090Z,29.05
2023-04-15T11:48:28.180Z,20.67
2023-04-15T11:50:57.097Z,22.35
2023-04-15T11:53:24.572Z,24.80
2023-04-15T11:55:52.835Z,28.02
2023-04-15T11:58:24.347Z,22.73
2023-04-15T12:00:57.688Z,18.35
2023-04-15T12:03:38.377Z,23.50
2023-04-15T12:06:08.670Z,26.42
2023-04-15T12:09:06.310Z,22.67
2023-04-15T12:11:44.751Z,23.52
2023-04-15T12:14:12.810Z,24.30
2023-04-15T12:16:48.863Z,20.88
2023-04-15T12:19:24.372Z,22.23
2023-04-15T12:21:51.310Z,23.60
2023-04-15T12:24:23.877Z,20.75
2023-04-15T12:26:57.999Z,24.33
2023-04-15T12:29:28.735Z,25.17
2023-04-15T12:32:07.707Z,21.90
2023-04-15T12:34:42.431Z,20.13
2023-04-15T12:37:11.749Z,19.88
2023-04-15T12:39:44.707Z,22.80
2023-04-15T12:42:11.946Z,17.73
2023-04-15T12:44:42.547Z,21.73
2023-04-15T12:47:10.753Z,18.80
2023-04-15T12:49:37.753Z,19.75
2023-04-15T12:52:04.454Z,20.67
2023-04-15T12:54:31.746Z,23.10
2023-04-15T12:56:59.086Z,20.42
2023-04-15T12:59:25.856Z,20.58
2023-04-15T13:01:53.449Z,20.60
2023-04-15T13:04:20.699Z,20.48
2023-04-15T13:06:48.923Z,18.60
2023-04-15T13:09:15.683Z,18.40
2023-04-15T13:11:43.114Z,17.63
2023-04-15T13:14:12.766Z,19.50
2023-04-15T13:16:39.171Z,18.00
2023-04-15T13:19:06.133Z,17.50
2023-04-15T13:21:35.147Z,16.58
2023-04-15T13:24:02.410Z,20.30
2023-04-15T13:26:29.165Z,16.83
2023-04-15T13:28:56.046Z,18.65
2023-04-15T13:31:22.503Z,19.95
2023-04-15T13:33:55.732Z,20.30
2023-04-15T13:36:29.329Z,17.25
2023-04-15T13:38:55.849Z,15.77
2023-04-15T13:41:22.655Z,15.13
2023-04-15T13:43:49.030Z,14.88
2023-04-15T13:46:15.515Z,14.45
2023-04-15T13:48:41.979Z,16.02
2023-04-15T13:51:08.380Z,14.27
2023-04-15T13:53:38.901Z,14.60
2023-04-15T13:56:09.969Z,14.60
2023-04-15T13:58:37.261Z,13.15
2023-04-15T14:01:05.825Z,11.52
2023-04-15T14:03:33.717Z,12.68
2023-04-15T14:06:00.576Z,10.43
2023-04-15T14:08:27.133Z,12.75
2023-04-15T14:10:53.500Z,13.77
2023-04-15T14:13:19.922Z,13.05
2023-04-15T14:15:47.462Z,14.27
2023-04-15T14:18:13.851Z,15.38
2023-04-15T14:20:40.561Z,14.77
2023-04-15T14:23:07.002Z,13.77
2023-04-15T14:25:34.181Z,16.85
2023-04-15T14:28:01.632Z,13.18
2023-04-15T14:30:28.175Z,12.15
2023-04-15T14:32:54.755Z,12.50
2023-04-15T14:35:21.163Z,12.70
2023-04-15T14:37:47.751Z,12.88
2023-04-15T14:40:14.164Z,13.93
2023-04-15T14:42:40.513Z,15.63
2023-04-15T14:45:07.423Z,15.07
2023-04-15T14:47:33.838Z,12.88
2023-04-15T14:50:00.585Z,13.05
2023-04-15T14:52:26.955Z,12.82
2023-04-15T14:54:53.329Z,14.98
2023-04-15T14:57:19.711Z,17.63
2023-04-15T14:59:46.309Z,15.68
2023-04-15T15:02:17.272Z,14.68
2023-04-15T15:04:52.903Z,14.35
2023-04-15T15:07:19.426Z,13.70
2023-04-15T15:09:46.096Z,13.95
2023-04-15T15:12:12.504Z,14.95
2023-04-15T15:14:38.862Z,14.88
2023-04-15T15:17:05.213Z,16.67
2023-04-15T15:19:31.714Z,15.25
2023-04-15T15:21:58.075Z,13.43
2023-04-15T15:24:24.488Z,13.77
2023-04-15T15:26:51.299Z,14.88
2023-04-15T15:29:17.685Z,14.65
2023-04-15T15:31:44.076Z,15.02
2023-04-15T15:34:10.486Z,12.73
2023-04-15T15:36:36.858Z,12.15
2023-04-15T15:39:04.904Z,13.60
2023-04-15T15:41:33.314Z,15.65
2023-04-15T15:43:59.951Z,18.02
2023-04-15T15:46:28.124Z,12.40
2023-04-15T15:48:55.273Z,17.38
2023-04-15T15:51:21.673Z,15.98
2023-04-15T15:53:48.043Z,17.35
2023-04-15T15:56:14.532Z,15.20
2023-04-15T15:58:43.731Z,16.17
2023-04-15T16:01:10.973Z,14.55
2023-04-15T16:03:37.563Z,14.82
2023-04-15T16:06:04.595Z,22.83
2023-04-15T16:08:30.949Z,15.65
2023-04-15T16:10:58.454Z,19.55
2023-04-15T16:13:24.956Z,21.50
2023-04-15T16:15:51.333Z,17.40
2023-04-15T16:18:18.216Z,18.45
2023-04-15T16:20:44.615Z,17.48
2023-04-15T16:23:16.342Z,16.77
2023-04-15T16:25:44.439Z,18.67
2023-04-15T16:28:23.096Z,18.45
2023-04-15T16:30:52.080Z,19.92
2023-04-15T16:33:18.563Z,22.65
2023-04-15T16:35:44.931Z,20.90
2023-04-15T16:38:11.334Z,20.33
2023-04-15T16:40:38.062Z,20.17
2023-04-15T16:43:07.292Z,17.40
2023-04-15T16:45:33.729Z,25.08
2023-04-15T16:48:00.394Z,22.25
2023-04-15T16:50:27.134Z,21.05
2023-04-15T16:52:54.909Z,28.20
2023-04-15T16:55:21.459Z,28.30
2023-04-15T16:58:02.117Z,24.77
2023-04-15T17:00:30.960Z,24.27
2023-04-15T17:02:57.810Z,24.92
2023-04-15T17:05:24.615Z,28.10
2023-04-15T17:07:50.958Z,23.77
2023-04-15T17:10:17.533Z,23.05
2023-04-15T17:12:43.909Z,25.15
2023-04-15T17:15:10.436Z,26.40
2023-04-15T17:17:36.872Z,23.08
2023-04-15T17:20:04.125Z,30.15
2023-04-15T17:22:30.668Z,25.45
2023-04-15T17:24:57.108Z,25.52
2023-04-15T17:27:24.612Z,24.90
2023-04-15T17:29:50.994Z,22.90
2023-04-15T17:32:17.707Z,22.88
2023-04-15T17:34:50.329Z,22.50
2023-04-15T17:37:17.830Z,24.83
2023-04-15T17:39:44.248Z,27.08
2023-04-15T17:42:11.251Z,25.25
2023-04-15T17:44:37.617Z,27.52
2023-04-15T17:47:08.455Z,26.05
2023-04-15T17:49:37.555Z,24.98
2023-04-15T17:52:04.166Z,27.52
2023-04-15T17:54:30.550Z,26.83
2023-04-15T17:56:57.933Z,29.23
2023-04-15T17:59:24.497Z,30.00
2023-04-15T18:01:51.150Z,28.90
2023-04-15T18:04:17.669Z,25.17
2023-04-15T18:06:44.312Z,28.02
2023-04-15T18:09:11.231Z,30.58
2023-04-15T18:11:39.979Z,32.47
2023-04-15T18:14:26.621Z,30.95
2023-04-15T18:17:00.382Z,28.70
2023-04-15T18:19:27.192Z,32.55
2023-04-15T18:21:53.560Z,25.73
2023-04-15T18:24:19.928Z,32.22
2023-04-15T18:26:48.784Z,28.13
2023-04-15T18:29:15.540Z,28.85
2023-04-15T18:31:45.017Z,29.08
2023-04-15T18:34:11.433Z,26.90
2023-04-15T18:36:37.973Z,27.08
2023-04-15T18:39:08.194Z,27.13
2023-04-15T18:41:41.151Z,28.65
2023-04-15T18:44:10.727Z,33.50
2023-04-15T18:46:37.072Z,27.98
2023-04-15T18:49:04.188Z,25.00
2023-04-15T18:51:30.830Z,30.20
2023-04-15T18:54:03.614Z,28.10
2023-04-15T18:56:30.804Z,31.25
2023-04-15T18:59:08.620Z,33.55
2023-04-15T19:01:43.984Z,31.70
2023-04-15T19:04:11.170Z,32.53
2023-04-15T19:06:37.848Z,30.63
2023-04-15T19:09:04.471Z,34.43
2023-04-15T19:11:31.243Z,30.98
2023-04-15T19:13:57.646Z,27.52
2023-04-15T19:16:24.154Z,28.75
2023-04-15T19:18:50.575Z,28.40
2023-04-15T19:21:17.005Z,33.80
2023-04-15T19:23:43.497Z,27.60
2023-04-15T19:26:11.481Z,25.33
2023-04-15T19:28:41.615Z,28.42
2023-04-15T19:31:08.037Z,30.77
2023-04-15T19:33:34.426Z,28.00
2023-04-15T19:36:12.190Z,25.17
2023-04-15T19:38:42.001Z,29.40
2023-04-15T19:41:10.562Z,26.85
2023-04-15T19:43:37.263Z,30.33
2023-04-15T19:46:03.684Z,28.70
2023-04-15T19:48:30.601Z,27.50
2023-04-15T19:50:57.574Z,27.25
2023-04-15T19:53:25.482Z,23.27
2023-04-15T19:55:51.969Z,27.42
2023-04-15T19:58:18.308Z,33.67
2023-04-15T20:00:44.683Z,27.75
2023-04-15T20:03:11.144Z,28.13
2023-04-15T20:05:37.635Z,25.92
2023-04-15T20:08:04.299Z,30.15
2023-04-15T20:10:31.583Z,25.40
2023-04-15T20:12:58.013Z,26.40
2023-04-15T20:15:28.065Z,23.10
2023-04-15T20:17:54.804Z,28.27
2023-04-15T20:20:21.571Z,26.90
2023-04-15T20:22:48.668Z,26.55
2023-04-15T20:25:15.196Z,27.20
2023-04-15T20:27:41.800Z,26.20
2023-04-15T20:30:08.781Z,25.90
2023-04-15T20:32:35.852Z,30.52
2023-04-15T20:35:04.144Z,31.17
2023-04-15T20:37:32.964Z,27.23
2023-04-15T20:40:00.173Z,27.67
2023-04-15T20:42:27.450Z,28.70
2023-04-15T20:44:53.854Z,29.45
2023-04-15T20:47:20.303Z,26.35
2023-04-15T20:49:47.326Z,28.25
2023-04-15T20:52:13.704Z,30.80
2023-04-15T20:54:40.081Z,26.92
2023-04-15T20:57:06.472Z,27.05
2023-04-15T20:59:34.558Z,28.50
2023-04-15T21:02:01.320Z,24.30
2023-04-15T21:04:27.803Z,30.45
2023-04-15T21:06:54.225Z,27.35
2023-04-15T21:09:20.596Z,26.05
2023-04-15T21:12:00.427Z,31.10
2023-04-15T21:14:27.350Z,27.85
2023-04-15T21:16:53.962Z,30.10
2023-04-15T21:19:20.391Z,28.55
2023-04-15T21:21:47.034Z,33.03
2023-04-15T21:24:19.904Z,30.98
2023-04-15T21:26:49.456Z,27.30
2023-04-15T21:29:15.843Z,25.45
2023-04-15T21:31:42.414Z,31.20
2023-04-15T21:34:14.183Z,32.67
2023-04-15T21:36:46.875Z,32.65
2023-04-15T21:39:13.248Z,34.95
2023-04-15T21:41:39.634Z,34.85
2023-04-15T21:44:14.756Z,28.13
2023-04-15T21:46:46.048Z,32.83
2023-04-15T21:49:20.391Z,30.33
2023-04-15T21:51:47.878Z,32.17
2023-04-15T21:54:14.352Z,26.88
2023-04-15T21:56:42.936Z,26.95
2023-04-15T21:59:09.369Z,28.85
2023-04-15T22:01:35.884Z,31.98
2023-04-15T22:04:04.578Z,32.28
2023-04-15T22:06:31.655Z,29.15
2023-04-15T22:08:58.102Z,31.38
2023-04-15T22:11:30.270Z,25.63
2023-04-15T22:13:57.467Z,32.28
2023-04-15T22:16:27.037Z,30.17
2023-04-15T22:18:54.086Z,33.83
2023-04-15T22:21:20.610Z,26.60
2023-04-15T22:23:48.241Z,30.92
2023-04-15T22:26:14.754Z,28.13
2023-04-15T22:28:41.562Z,27.10
2023-04-15T22:31:08.112Z,31.15
2023-04-15T22:33:34.512Z,29.08
2023-04-15T22:36:01.074Z,29.67
2023-04-15T22:38:27.551Z,26.60
2023-04-15T22:40:54.172Z,34.33
2023-04-15T22:43:20.654Z,30.27
2023-04-15T22:45:50.959Z,31.48
2023-04-15T22:48:18.753Z,30.23
2023-04-15T22:50:45.659Z,32.83
2023-04-15T22:53:12.531Z,34.28
2023-04-15T22:55:38.958Z,32.20
2023-04-15T22:58:05.482Z,31.92
2023-04-15T23:00:31.858Z,31.17
2023-04-15T23:02:58.399Z,28.20
2023-04-15T23:05:24.925Z,29.88
2023-04-15T23:07:51.363Z,34.72
2023-04-15T23:10:17.807Z,29.23
2023-04-15T23:12:44.210Z,33.15
2023-04-15T23:15:11.520Z,32.38
2023-04-15T23:17:37.971Z,32.63
2023-04-15T23:20:04.672Z,33.85
2023-04-15T23:22:31.069Z,31.67
2023-04-15T23:24:57.421Z,40.80
2023-04-15T23:27:23.793Z,36.72
2023-04-15T23:29:50.142Z,32.40
2023-04-15T23:32:16.650Z,35.58
2023-04-15T23:34:43.121Z,35.22
2023-04-15T23:37:09.577Z,31.40
2023-04-15T23:39:36.150Z,33.03
2023-04-15T23:42:03.273Z,32.10
2023-04-15T23:44:29.639Z,30.73
2023-04-15T23:46:56.047Z,31.67
2023-04-15T23:49:22.453Z,38.05
2023-04-15T23:51:48.888Z,29.42
2023-04-15T23:54:15.269Z,32.38
2023-04-15T23:56:41.668Z,30.48
2023-04-15T23:59:08.327Z,36.22
